Yeager Airport Charleston US
ICAO: KCRW
IATA: CRW
Category: Large
Scheduled Services: Yes

Elevation: 981 ft
TransAlt. 18000 ft.

Airport Communications:
CHARLESTON APP/DEP:128.5
ATIS:127.6
CLNC DEL:118.55
GND:121.8
ANG COMD POST/OPS:30.23
ELKINS RDO:122.2
CHARLESTON TWR:125.7
UNICOM:122.95

KCRW Zoom In..

If you have problems with the map follow the link
https://www.worldairports.se/pages/airport.php?
ICAO=KCRW

Runways:

(A) RW 05 length 6802 ft width 150 ft
ILS 110.30 / hdg 53

(B) RW 23 length 6802 ft width 150 ft
ILS 110.30 / hdg 233

Location; KCRW
Day. 08 / Time. 18.54 Zulu
* Altimeter: 30.16
* Temperature: 13° c. 55.4°f.
* Wind from: 160° Speed 11 kn with Gusts up to 16 kn.
Dewpoint: 01° c.
Visibility: 10 Statute Miles.
Clouds: Broken 6000 ft.
Clouds: Broken 25000 ft.

KCRW 081854Z 16011G16KT 10SM BKN060 BKN250 13/01 A3016 RMK AO2 SLP218 T01330011


Wind From 160°
Speed 11 kn.

 
 
jpsmedia worldairports.se 2019   terms of use